KOAK/OAK METAR and TAF weather

Enter ICAO airport designator
Station Type Date Time Source
KOAK METAR 2022/12/04 11:53 UTC NOAA

KOAK 041153Z 15008KT 10SM -RA FEW004 BKN018 OVC050 09/09 A3001 RMK AO2 SLP163 P0002 60003 70089 T00940089 10094 20067 53009


Station Type Date Time Source
KOAK Decoded METAR 2022/12/04 11:53 UTC NOAA

METRO OAKLAND INTERNATIONAL AIRPORT , CA, United States (KOAK) 37-43N 122-14W 26M
Dec 04, 2022 - 06:53 AM EST / 2022.12.04 1153 UTC
Wind: from the SSE (150 degrees) at 9 MPH (8 KT):0
Visibility: 10 mile(s):0
Sky conditions: overcast
Weather: light rain
Precipitation last hour: 0.02 inches
Temperature: 48.9 F (9.4 C)
Dew Point: 48.0 F (8.9 C)
Relative Humidity: 96%
Pressure (altimeter): 30.01 in. Hg (1016 hPa)
Pressure tendency: 0.03 inches (0.9 hPa) higher than three hours ago
ob: KOAK 041153Z 15008KT 10SM -RA FEW004 BKN018 OVC050 09/09 A3001 RMK AO2 SLP163 P0002 60003 70089 T00940089 10094 20067 53009
cycle: 12

Station Type Date Time Source
KOAK TAF 2022/12/04 12:33 UTC NOAA

TAF KOAK 041130Z 0412/0518 15007KT P6SM VCSH SCT008 BKN026 OVC050
TEMPO 0416/0418 4SM -RA BR
FM042000 26010KT P6SM SCT030 BKN050
FM050200 18007KT P6SM BKN050
FM050700 18005KT P6SM VCSH BKN030
FM051300 17007KT 4SM -RA OVC025
FM051600 18010KT P6SM VCSH BKN040

Example: see airport list